Sanger, Texas
Current Conditions -  °F | °C
As of 5:19 AM on Thursday 18 Dec 2014 (Local Time) from KDTO Reporting Station
Haze Haze  
Wind Chill: 42°   Ceiling: 400
Heat Index: 42°   Visibility: 1.7mi
Dew Point: 42°   Wind: 3mph
Humidity: 100%   Direction: 120°ESE
Pressure: 30.11"   Gusts: NA
Location:  33.36°N, 97.17°W
Report Text: KDTO 181119Z AUTO 12003KT 1 3/4SM BR OVC004 06/06 A3011 RMK AO2 T00560056
Loading
Personal Weather Stations






























Interactive Weather Map New forecast layout! Learn more

10-Day Weather Forecast

Advertisements
Track Severe Weather on mobile